Time;durP1;ratioP1;P1;durP2;ratioP2;P2;SDS_P1;SDS_P2;PMS_P1;PMS_P2;Temp;Humidity;BMP_temperature;BMP_pressure;BME280_temperature;BME280_humidity;BME280_pressure;Samples;Min_cycle;Max_cycle;Signal;HPM_P1;HPM_P2
2022/08/14 00:00:35;;;;;;;9.18;5.80;;;21.70;99.90;;;;;;5079144;28;20533;-72
2022/08/14 00:03:00;;;;;;;8.80;6.00;;;21.60;99.90;;;;;;5083574;28;20050;-72
2022/08/14 00:05:26;;;;;;;7.28;5.50;;;21.70;99.90;;;;;;5099316;28;20048;-72
2022/08/14 00:07:51;;;;;;;8.48;5.47;;;21.60;99.90;;;;;;5093758;28;20035;-72
2022/08/14 00:10:19;;;;;;;6.80;5.65;;;21.60;99.90;;;;;;5094016;28;20047;-72
2022/08/14 00:12:49;;;;;;;7.90;5.40;;;21.50;99.90;;;;;;5074718;28;20074;-72
2022/08/14 00:15:19;;;;;;;8.98;5.68;;;21.50;99.90;;;;;;5088605;28;20046;-72
2022/08/14 00:17:45;;;;;;;9.80;5.70;;;21.40;99.90;;;;;;5079891;28;20044;-72
2022/08/14 00:20:12;;;;;;;8.23;5.55;;;21.40;99.90;;;;;;5078985;28;20093;-72
2022/08/14 00:22:38;;;;;;;6.10;5.20;;;21.40;99.90;;;;;;5094235;28;20071;-72
2022/08/14 00:25:05;;;;;;;7.18;5.63;;;21.30;99.90;;;;;;5069641;28;20071;-72
2022/08/14 00:27:31;;;;;;;7.13;5.65;;;21.30;99.90;;;;;;5061802;28;20044;-72
2022/08/14 00:29:56;;;;;;;7.45;5.53;;;21.20;99.90;;;;;;5092032;28;20123;-71
2022/08/14 00:32:22;;;;;;;6.05;5.50;;;21.20;99.90;;;;;;5061163;28;20036;-72
2022/08/14 00:34:48;;;;;;;6.68;5.90;;;21.20;99.90;;;;;;5091316;28;20048;-72
2022/08/14 00:37:14;;;;;;;10.35;5.93;;;21.10;99.90;;;;;;5092057;28;20050;-72
2022/08/14 00:39:40;;;;;;;7.03;5.80;;;21.10;99.90;;;;;;5091919;28;20044;-72
2022/08/14 00:42:05;;;;;;;6.40;5.88;;;21.00;99.90;;;;;;5055903;28;20044;-72
2022/08/14 00:44:31;;;;;;;6.38;5.85;;;21.00;99.90;;;;;;5091339;28;20036;-72
2022/08/14 00:46:58;;;;;;;8.05;6.03;;;21.00;99.90;;;;;;5074124;28;20128;-72
2022/08/14 00:49:25;;;;;;;7.38;5.90;;;21.00;99.90;;;;;;5054993;28;20040;-72
2022/08/14 00:51:51;;;;;;;7.40;5.80;;;21.00;99.90;;;;;;5083965;28;20051;-72
2022/08/14 00:54:17;;;;;;;8.75;5.82;;;21.00;99.90;;;;;;5087680;28;20032;-72
2022/08/14 00:56:43;;;;;;;10.25;5.90;;;20.90;99.90;;;;;;5083303;28;20078;-72
2022/08/14 00:59:10;;;;;;;6.45;5.72;;;20.90;99.90;;;;;;5074011;28;20047;-72
2022/08/14 01:01:36;;;;;;;5.93;5.43;;;20.80;99.90;;;;;;5091903;28;20036;-72
2022/08/14 01:04:02;;;;;;;7.05;5.70;;;20.80;99.90;;;;;;5072932;28;20032;-72
2022/08/14 01:06:28;;;;;;;9.45;5.72;;;20.80;99.90;;;;;;5072924;28;20043;-72
2022/08/14 01:08:54;;;;;;;7.18;5.88;;;20.70;99.90;;;;;;5089353;28;20036;-72
2022/08/14 01:11:20;;;;;;;8.65;6.07;;;20.60;99.90;;;;;;5071557;28;20048;-72
2022/08/14 01:13:49;;;;;;;9.93;6.00;;;20.60;99.90;;;;;;5088397;28;20073;-72
2022/08/14 01:16:19;;;;;;;8.48;6.40;;;20.50;99.90;;;;;;5071042;28;20327;-72
2022/08/14 01:21:35;;;;;;;9.27;6.18;;;20.50;99.90;;;;;;5062422;28;20056;-72
2022/08/14 01:24:02;;;;;;;8.98;7.05;;;20.40;99.90;;;;;;5070080;28;20348;-72
2022/08/14 01:26:28;;;;;;;9.43;7.28;;;20.40;99.90;;;;;;5062733;28;20040;-72
2022/08/14 01:28:58;;;;;;;11.35;7.50;;;20.30;99.90;;;;;;5071005;28;20044;-72
2022/08/14 01:31:27;;;;;;;7.72;6.95;;;20.30;99.90;;;;;;5063180;28;20045;-72
2022/08/14 01:33:56;;;;;;;8.38;7.55;;;20.20;99.90;;;;;;5084975;28;20170;-72
2022/08/14 01:36:24;;;;;;;8.52;7.25;;;20.20;99.90;;;;;;5070480;28;20119;-72
2022/08/14 01:38:52;;;;;;;7.65;6.95;;;20.10;99.90;;;;;;5074744;28;20127;-72
2022/08/14 01:41:20;;;;;;;24.50;7.68;;;20.10;99.90;;;;;;5083483;28;20039;-72
2022/08/14 01:43:59;;;;;;;7.40;6.70;;;20.10;99.90;;;;;;5073268;28;20044;-72
2022/08/14 01:46:27;;;;;;;21.45;7.63;;;20.10;99.90;;;;;;5068313;28;20056;-72
2022/08/14 01:48:56;;;;;;;11.63;6.43;;;20.10;99.90;;;;;;5057254;28;20044;-72
2022/08/14 01:51:23;;;;;;;7.25;6.60;;;20.10;99.90;;;;;;5053490;28;20041;-72
2022/08/14 01:53:58;;;;;;;8.93;6.75;;;20.10;99.90;;;;;;5058110;28;20039;-72
2022/08/14 01:56:39;;;;;;;11.80;7.20;;;20.10;99.90;;;;;;5087810;28;20047;-72
2022/08/14 01:59:20;;;;;;;7.88;7.00;;;20.10;99.90;;;;;;5070361;28;20044;-72
2022/08/14 02:01:51;;;;;;;10.88;6.22;;;20.10;99.90;;;;;;5059684;28;20040;-72
2022/08/14 02:04:19;;;;;;;7.90;7.10;;;20.10;99.90;;;;;;5073184;28;20044;-72
2022/08/14 02:06:46;;;;;;;7.53;6.88;;;20.00;99.90;;;;;;5053619;28;20131;-71
2022/08/14 02:09:12;;;;;;;9.90;7.47;;;20.00;99.90;;;;;;5052918;28;20044;-72
2022/08/14 02:11:37;;;;;;;7.45;6.63;;;19.90;99.90;;;;;;5062356;28;20046;-72
2022/08/14 02:14:09;;;;;;;7.50;6.80;;;19.90;99.90;;;;;;5081467;28;20383;-72
2022/08/14 02:16:38;;;;;;;8.20;7.50;;;19.90;99.90;;;;;;5069868;28;20493;-72
2022/08/14 02:19:10;;;;;;;8.10;7.30;;;19.80;99.90;;;;;;5072291;28;20047;-72
2022/08/14 02:21:36;;;;;;;9.68;7.57;;;19.80;99.90;;;;;;5087063;28;20395;-72
2022/08/14 02:24:04;;;;;;;13.25;7.85;;;19.80;99.90;;;;;;5088471;28;20391;-72
2022/08/14 02:26:34;;;;;;;8.23;7.40;;;19.80;99.90;;;;;;5067800;28;20091;-72
2022/08/14 02:29:02;;;;;;;9.20;7.45;;;19.70;99.90;;;;;;5069680;28;20097;-72
2022/08/14 02:31:31;;;;;;;9.63;7.68;;;19.70;99.90;;;;;;5065173;28;20486;-72
2022/08/14 02:34:09;;;;;;;9.25;7.65;;;19.70;99.90;;;;;;5078768;28;20080;-72
2022/08/14 02:36:36;;;;;;;9.88;7.47;;;19.70;99.90;;;;;;5074392;28;20403;-72
2022/08/14 02:39:04;;;;;;;7.90;7.28;;;19.70;99.90;;;;;;5074223;28;20407;-72
2022/08/14 02:41:31;;;;;;;8.68;7.85;;;19.80;99.90;;;;;;5061803;28;20453;-72
2022/08/14 02:43:57;;;;;;;7.95;7.25;;;19.80;99.90;;;;;;5064387;28;20434;-72
2022/08/14 02:46:22;;;;;;;9.02;8.10;;;19.80;99.90;;;;;;5071230;28;20094;-72
2022/08/14 02:48:48;;;;;;;9.38;7.22;;;19.80;99.90;;;;;;5072535;28;20048;-71
2022/08/14 02:51:14;;;;;;;8.68;7.82;;;19.80;99.90;;;;;;5092352;28;20430;-72
2022/08/14 02:53:44;;;;;;;10.90;7.93;;;19.80;99.90;;;;;;5076177;28;20047;-72
2022/08/14 02:56:14;;;;;;;9.82;8.05;;;19.80;99.90;;;;;;5069905;28;20044;-72
2022/08/14 02:58:50;;;;;;;12.70;7.68;;;19.80;99.90;;;;;;5083124;28;20455;-72
2022/08/14 03:01:18;;;;;;;8.65;7.63;;;19.80;99.90;;;;;;5059466;28;20062;-72
2022/08/14 03:03:45;;;;;;;8.65;7.50;;;19.80;99.90;;;;;;5065081;28;20090;-72
2022/08/14 03:06:12;;;;;;;8.65;7.72;;;19.80;99.90;;;;;;5073252;28;20044;-71
2022/08/14 03:08:40;;;;;;;10.40;7.60;;;19.80;99.90;;;;;;5081335;28;20040;-72
2022/08/14 03:11:09;;;;;;;9.40;7.47;;;19.80;99.90;;;;;;5073422;28;20063;-73
2022/08/14 03:13:38;;;;;;;8.40;7.57;;;19.80;99.90;;;;;;5070804;28;20036;-72
2022/08/14 03:16:06;;;;;;;9.10;7.85;;;19.80;99.90;;;;;;5092313;28;20044;-72
2022/08/14 03:18:32;;;;;;;10.77;7.60;;;19.80;99.90;;;;;;5075505;28;20036;-72
2022/08/14 03:21:04;;;;;;;10.15;7.70;;;19.80;99.90;;;;;;5062161;28;20048;-72
2022/08/14 03:23:33;;;;;;;;;;;19.70;99.90;;;;;;5098441;28;20054;-72
2022/08/14 03:25:59;;;;;;;9.98;7.43;;;19.70;99.90;;;;;;5085362;28;19926;-72
2022/08/14 03:28:27;;;;;;;8.90;7.32;;;19.70;99.90;;;;;;5061658;28;20086;-72
2022/08/14 03:30:52;;;;;;;10.77;8.25;;;19.80;99.90;;;;;;5074571;28;20097;-72
2022/08/14 03:33:18;;;;;;;12.25;8.13;;;19.70;99.90;;;;;;5075683;28;20491;-72
2022/08/14 03:35:44;;;;;;;7.80;7.10;;;19.70;99.90;;;;;;5072512;28;20040;-72
2022/08/14 03:38:11;;;;;;;10.35;7.85;;;19.70;99.90;;;;;;5075299;28;20570;-72
2022/08/14 03:40:39;;;;;;;7.82;7.05;;;19.70;99.90;;;;;;5088762;28;20036;-72
2022/08/14 03:43:06;;;;;;;7.70;7.00;;;19.70;99.90;;;;;;5075119;28;20085;-72
2022/08/14 03:45:34;;;;;;;8.20;7.50;;;19.70;99.90;;;;;;5079993;28;20036;-71
2022/08/14 03:48:14;;;;;;;9.85;8.27;;;19.60;99.90;;;;;;5084669;28;20097;-72
2022/08/14 03:50:43;;;;;;;10.30;8.10;;;19.60;99.90;;;;;;5063238;28;20055;-72
2022/08/14 03:53:10;;;;;;;8.35;7.40;;;19.60;99.90;;;;;;5072945;28;20055;-72
2022/08/14 03:55:37;;;;;;;10.82;7.57;;;19.50;99.90;;;;;;5073926;28;20136;-72
2022/08/14 03:58:05;;;;;;;9.23;7.43;;;19.50;99.90;;;;;;5065826;28;20055;-72
2022/08/14 04:00:31;;;;;;;8.15;7.28;;;19.50;99.90;;;;;;5068211;28;20239;-72
2022/08/14 04:02:57;;;;;;;8.27;7.47;;;19.50;99.90;;;;;;5066200;28;20569;-72
2022/08/14 04:05:23;;;;;;;8.13;7.22;;;19.50;99.90;;;;;;5085994;28;20036;-72
2022/08/14 04:07:49;;;;;;;8.70;7.38;;;19.40;99.90;;;;;;5064427;28;20491;-72
2022/08/14 04:10:16;;;;;;;7.55;6.63;;;19.40;99.90;;;;;;5071082;28;20044;-71
2022/08/14 04:12:42;;;;;;;9.20;7.10;;;19.40;99.90;;;;;;5064244;28;20086;-72
2022/08/14 04:15:09;;;;;;;7.78;7.03;;;19.40;99.90;;;;;;5089673;28;20064;-72
2022/08/14 04:17:34;;;;;;;8.10;6.50;;;19.30;99.90;;;;;;5074381;28;20040;-72
2022/08/14 04:20:05;;;;;;;9.02;7.55;;;19.30;99.90;;;;;;5070296;28;20380;-73
2022/08/14 04:22:32;;;;;;;9.20;8.20;;;19.30;99.90;;;;;;5066242;28;20047;-72
2022/08/14 04:25:00;;;;;;;8.80;7.70;;;19.30;99.90;;;;;;5068110;28;20089;-72
2022/08/14 04:27:26;;;;;;;10.60;8.02;;;19.30;99.90;;;;;;5083532;28;20036;-72
2022/08/14 04:29:52;;;;;;;8.65;7.75;;;19.30;99.90;;;;;;5073875;28;20044;-72
2022/08/14 04:32:21;;;;;;;10.85;8.25;;;19.30;99.90;;;;;;5062974;28;20032;-72
2022/08/14 04:34:47;;;;;;;8.80;7.90;;;19.30;99.90;;;;;;5067074;28;20503;-72
2022/08/14 04:45:39;;;;;;;7.93;7.13;;;19.30;99.90;;;;;;5071138;28;20470;-72
2022/08/14 04:48:13;;;;;;;7.88;6.63;;;19.30;99.90;;;;;;5083943;28;20047;-73
2022/08/14 04:50:41;;;;;;;7.68;6.65;;;19.30;99.90;;;;;;5073477;28;20261;-72
2022/08/14 04:53:09;;;;;;;7.93;6.75;;;19.30;99.90;;;;;;5073714;28;20092;-72
2022/08/14 04:55:35;;;;;;;8.13;7.05;;;19.30;99.90;;;;;;5069259;28;20045;-72
2022/08/14 04:58:03;;;;;;;9.60;7.32;;;19.30;99.90;;;;;;5073656;28;20109;-72
2022/08/14 05:00:29;;;;;;;8.70;7.43;;;19.40;99.90;;;;;;5072068;28;20052;-72
2022/08/14 05:02:55;;;;;;;9.27;7.82;;;19.40;99.90;;;;;;5060782;28;20048;-72
2022/08/14 05:05:23;;;;;;;12.73;8.45;;;19.40;99.90;;;;;;5090932;28;20044;-72
2022/08/14 05:07:50;;;;;;;8.60;7.15;;;19.40;99.90;;;;;;5064614;28;20285;-72
2022/08/14 05:10:16;;;;;;;10.50;8.13;;;19.40;99.90;;;;;;5083306;28;20048;-72
2022/08/14 05:12:43;;;;;;;9.65;8.35;;;19.40;99.90;;;;;;5065536;28;20098;-72
2022/08/14 05:15:09;;;;;;;9.50;8.50;;;19.50;99.90;;;;;;5066388;28;20047;-72
2022/08/14 05:17:42;;;;;;;8.85;7.97;;;19.50;99.90;;;;;;5073355;28;20051;-72
2022/08/14 05:20:09;;;;;;;9.13;8.32;;;19.50;99.90;;;;;;5078135;28;20095;-72
2022/08/14 05:22:36;;;;;;;9.32;8.43;;;19.50;99.90;;;;;;5105722;28;20039;-71
2022/08/14 05:25:03;;;;;;;8.55;7.60;;;19.50;99.90;;;;;;5085773;28;20088;-72
2022/08/14 05:27:28;;;;;;;9.45;7.72;;;19.60;99.90;;;;;;5082816;28;20044;-72
2022/08/14 05:29:55;;;;;;;11.63;7.95;;;19.60;99.90;;;;;;5091074;28;20542;-72
2022/08/14 05:32:21;;;;;;;8.90;8.00;;;19.60;99.90;;;;;;5085591;28;20093;-72
2022/08/14 05:34:47;;;;;;;10.13;7.90;;;19.70;99.90;;;;;;5086983;28;20045;-72
2022/08/14 05:37:13;;;;;;;8.55;7.75;;;19.80;99.90;;;;;;5073531;28;20052;-71
2022/08/14 05:39:40;;;;;;;8.75;7.85;;;19.70;99.90;;;;;;5084798;28;20044;-72
2022/08/14 05:42:06;;;;;;;9.25;7.15;;;19.80;99.90;;;;;;5073382;28;20040;-72
2022/08/14 05:44:32;;;;;;;10.73;7.53;;;19.80;99.90;;;;;;5073992;28;20043;-72
2022/08/14 05:46:58;;;;;;;10.50;7.93;;;19.80;99.90;;;;;;5078184;28;20036;-71
2022/08/14 05:49:24;;;;;;;9.23;8.43;;;19.90;99.90;;;;;;5110700;28;20042;-72
2022/08/14 05:51:50;;;;;;;9.63;8.48;;;19.90;99.90;;;;;;5082258;28;20056;-72
2022/08/14 05:54:16;;;;;;;13.20;9.20;;;20.00;99.90;;;;;;5091084;28;20048;-72
2022/08/14 05:56:41;;;;;;;11.00;8.30;;;20.10;99.90;;;;;;5077098;28;20036;-72
2022/08/14 05:59:07;;;;;;;13.35;8.90;;;20.10;99.90;;;;;;5078519;28;20032;-72
2022/08/14 06:01:33;;;;;;;9.75;8.20;;;20.10;99.90;;;;;;5095354;28;20113;-72
2022/08/14 06:03:59;;;;;;;10.18;8.82;;;20.20;99.90;;;;;;5091929;28;20051;-72
2022/08/14 06:06:24;;;;;;;9.05;8.20;;;20.20;99.90;;;;;;5087748;28;20044;-71
2022/08/14 06:08:50;;;;;;;9.40;8.40;;;20.30;99.90;;;;;;5090092;28;20303;-72
2022/08/14 06:11:16;;;;;;;8.35;7.60;;;20.40;99.90;;;;;;5104392;28;20126;-72
2022/08/14 06:13:42;;;;;;;9.30;8.23;;;20.40;99.90;;;;;;5098857;28;20044;-72
2022/08/14 06:16:09;;;;;;;7.97;7.20;;;20.50;99.90;;;;;;5086446;28;20050;-72
2022/08/14 06:18:35;;;;;;;8.77;7.88;;;20.50;99.90;;;;;;5068643;28;20072;-72
2022/08/14 06:21:04;;;;;;;10.57;7.80;;;20.60;99.90;;;;;;5067588;28;20040;-72
2022/08/14 06:23:30;;;;;;;8.15;7.40;;;20.70;99.90;;;;;;5066362;28;20059;-72
2022/08/14 06:25:56;;;;;;;10.20;7.90;;;20.80;99.90;;;;;;5067982;28;20043;-71
2022/08/14 06:28:24;;;;;;;8.60;7.40;;;20.80;99.90;;;;;;5062925;28;20051;-72
2022/08/14 06:30:51;;;;;;;9.85;6.95;;;20.90;99.90;;;;;;5083849;28;20052;-72
2022/08/14 06:33:18;;;;;;;13.43;7.45;;;21.10;99.90;;;;;;5059808;28;20118;-72
2022/08/14 06:35:45;;;;;;;8.88;7.20;;;21.10;99.90;;;;;;5076750;28;20131;-72
2022/08/14 06:38:19;;;;;;;8.15;6.90;;;21.20;99.90;;;;;;5062852;28;20063;-72
2022/08/14 06:40:46;;;;;;;7.82;7.03;;;21.30;99.90;;;;;;5068372;28;20089;-71
2022/08/14 06:43:13;;;;;;;8.05;6.70;;;21.40;99.90;;;;;;5081219;28;20303;-72
2022/08/14 06:45:41;;;;;;;8.77;6.88;;;21.50;99.90;;;;;;5081638;28;20037;-72
2022/08/14 06:48:17;;;;;;;8.02;6.60;;;21.60;99.90;;;;;;5093369;28;20440;-72
2022/08/14 06:50:44;;;;;;;7.70;6.90;;;21.70;99.90;;;;;;5065537;28;20049;-72
2022/08/14 06:53:10;;;;;;;7.63;6.63;;;21.80;99.90;;;;;;5085285;28;20445;-72
2022/08/14 06:55:36;;;;;;;7.65;7.03;;;21.90;99.90;;;;;;5071132;28;20119;-72
2022/08/14 06:58:03;;;;;;;7.10;6.40;;;22.00;99.90;;;;;;5067093;28;20040;-72
2022/08/14 07:00:29;;;;;;;7.05;6.35;;;22.10;99.90;;;;;;5087925;28;20443;-72
2022/08/14 07:05:46;;;;;;;6.47;5.93;;;22.40;99.90;;;;;;5094352;28;20455;-72
2022/08/14 07:08:17;;;;;;;6.93;6.22;;;22.50;99.90;;;;;;5062809;28;20364;-72
2022/08/14 07:10:45;;;;;;;6.90;5.57;;;22.60;99.90;;;;;;5066479;28;20041;-72
2022/08/14 07:13:12;;;;;;;6.40;5.88;;;22.80;99.90;;;;;;5059221;28;20041;-72
2022/08/14 07:15:39;;;;;;;7.53;6.28;;;22.90;99.90;;;;;;5066400;28;20064;-72
2022/08/14 07:18:06;;;;;;;7.32;5.57;;;23.00;99.90;;;;;;5089107;28;20043;-72
2022/08/14 07:20:32;;;;;;;7.35;6.20;;;23.20;99.90;;;;;;5066655;28;20078;-72
2022/08/14 07:22:59;;;;;;;6.72;5.90;;;23.30;99.90;;;;;;5064685;28;20075;-72
2022/08/14 07:25:25;;;;;;;8.77;5.63;;;23.40;99.90;;;;;;5064474;28;20538;-72
2022/08/14 07:27:52;;;;;;;6.63;5.80;;;23.60;99.90;;;;;;5070388;28;20136;-72
2022/08/14 07:30:18;;;;;;;8.68;6.22;;;23.70;99.90;;;;;;5071868;28;20087;-72
2022/08/14 07:32:43;;;;;;;7.60;5.72;;;23.90;99.90;;;;;;5086365;28;20121;-72
2022/08/14 07:35:09;;;;;;;10.40;5.72;;;24.00;99.90;;;;;;5065035;28;20044;-72
2022/08/14 07:37:35;;;;;;;5.80;5.30;;;24.10;99.90;;;;;;5073153;28;20082;-72
2022/08/14 07:40:02;;;;;;;7.35;5.93;;;24.20;99.90;;;;;;5063447;28;20081;-72
2022/08/14 07:42:28;;;;;;;5.93;5.43;;;24.40;99.90;;;;;;5061702;28;20541;-72
2022/08/14 07:44:54;;;;;;;8.15;4.95;;;24.50;99.90;;;;;;5049959;28;20040;-72
2022/08/14 07:47:19;;;;;;;7.68;5.07;;;24.60;99.90;;;;;;5092017;28;20055;-72
2022/08/14 07:50:06;;;;;;;7.70;5.43;;;24.80;99.90;;;;;;5061343;28;20047;-72
2022/08/14 07:52:32;;;;;;;5.55;5.03;;;24.90;99.90;;;;;;5068874;28;20509;-72
2022/08/14 07:54:59;;;;;;;5.78;5.20;;;25.00;99.90;;;;;;5071859;28;20071;-72
2022/08/14 07:57:26;;;;;;;9.23;4.75;;;25.20;99.90;;;;;;5068450;28;20055;-72
2022/08/14 07:59:52;;;;;;;5.28;4.70;;;25.30;99.90;;;;;;5065429;28;20062;-72
2022/08/14 08:02:18;;;;;;;5.13;4.68;;;25.40;99.90;;;;;;5073908;28;20110;-72
2022/08/14 08:04:46;;;;;;;6.68;4.85;;;25.50;99.90;;;;;;5066251;28;20071;-72
2022/08/14 08:07:12;;;;;;;5.97;4.70;;;25.60;99.90;;;;;;5086151;28;20032;-72
2022/08/14 08:09:44;;;;;;;7.72;5.03;;;25.70;99.90;;;;;;5061727;28;20123;-72
2022/08/14 08:12:10;;;;;;;6.05;4.88;;;25.80;99.90;;;;;;5061227;28;20395;-72
2022/08/14 08:14:37;;;;;;;5.40;4.68;;;26.00;99.90;;;;;;5066318;28;20076;-72
2022/08/14 08:17:03;;;;;;;6.32;4.70;;;26.20;99.90;;;;;;5069179;28;20040;-72
2022/08/14 08:19:30;;;;;;;6.85;4.60;;;26.30;99.90;;;;;;5069542;28;20043;-71
2022/08/14 08:21:57;;;;;;;8.00;4.93;;;26.40;99.90;;;;;;5068860;28;20113;-72
2022/08/14 08:24:23;;;;;;;5.43;4.75;;;26.50;99.90;;;;;;5073998;28;20046;-72
2022/08/14 08:26:49;;;;;;;6.20;4.90;;;26.70;99.90;;;;;;5092357;28;20577;-72
2022/08/14 08:29:20;;;;;;;4.68;4.28;;;26.80;99.90;;;;;;5092158;28;20031;-72
2022/08/14 08:31:49;;;;;;;5.07;4.40;;;26.80;99.90;;;;;;5090985;28;20048;-72
2022/08/14 08:34:15;;;;;;;5.53;4.15;;;26.90;99.90;;;;;;5066629;28;20127;-72
2022/08/14 08:36:42;;;;;;;7.25;4.50;;;27.00;99.90;;;;;;5062093;28;20032;-72
2022/08/14 08:39:08;;;;;;;5.50;4.68;;;27.20;99.90;;;;;;5070448;28;20047;-72
2022/08/14 08:41:42;;;;;;;5.53;4.35;;;27.30;99.90;;;;;;5085638;28;20438;-72
2022/08/14 08:44:08;;;;;;;4.43;4.03;;;27.50;99.90;;;;;;5065948;28;20051;-72
2022/08/14 08:46:33;;;;;;;4.30;3.90;;;27.60;99.90;;;;;;5067884;28;20395;-72
2022/08/14 08:48:59;;;;;;;9.70;4.28;;;27.70;99.90;;;;;;5072538;28;20550;-72
2022/08/14 08:51:38;;;;;;;7.28;3.90;;;27.80;99.10;;;;;;5072362;28;20046;-72
2022/08/14 08:54:13;;;;;;;8.55;4.10;;;27.90;98.70;;;;;;5073713;28;20036;-72
2022/08/14 08:56:43;;;;;;;4.88;3.80;;;28.00;97.90;;;;;;5071779;28;20044;-72
2022/08/14 08:59:30;;;;;;;4.30;3.58;;;28.10;97.80;;;;;;5070351;28;20036;-72
2022/08/14 09:01:58;;;;;;;4.18;3.72;;;28.20;97.60;;;;;;5085969;28;20040;-72
2022/08/14 09:04:26;;;;;;;8.18;3.42;;;28.40;96.80;;;;;;5072988;28;20040;-73
2022/08/14 09:06:52;;;;;;;8.68;3.90;;;28.50;96.60;;;;;;5073794;28;20249;-72
2022/08/14 09:09:26;;;;;;;4.15;3.75;;;28.70;96.10;;;;;;5089919;28;20537;-72
2022/08/14 09:11:53;;;;;;;6.38;3.60;;;28.80;96.00;;;;;;5058507;28;20074;-72
2022/08/14 09:14:28;;;;;;;3.67;3.30;;;28.90;94.80;;;;;;5071847;28;20044;-72
2022/08/14 09:16:55;;;;;;;5.65;3.60;;;29.00;94.00;;;;;;5059371;28;20036;-72
2022/08/14 09:19:21;;;;;;;3.97;3.60;;;29.10;93.10;;;;;;5076623;28;20236;-72
2022/08/14 09:21:47;;;;;;;3.85;3.40;;;29.10;93.50;;;;;;5072212;28;20386;-72
2022/08/14 09:24:13;;;;;;;7.38;3.83;;;29.30;93.20;;;;;;5070578;28;20047;-72
2022/08/14 09:26:40;;;;;;;4.05;3.65;;;29.40;92.50;;;;;;5060737;28;20117;-72
2022/08/14 09:29:07;;;;;;;4.53;3.47;;;29.60;92.40;;;;;;5068545;28;20395;-72
2022/08/14 09:31:36;;;;;;;5.80;3.70;;;29.70;92.10;;;;;;5073200;28;20496;-72
2022/08/14 09:34:39;;;;;;;4.75;3.63;;;29.80;91.90;;;;;;5061175;28;20604;-73
2022/08/14 09:37:27;;;;;;;7.30;3.70;;;29.90;90.50;;;;;;5064752;28;20506;-72
2022/08/14 09:40:09;;;;;;;4.75;3.58;;;30.00;88.50;;;;;;5060257;28;20539;-72
2022/08/14 09:42:47;;;;;;;4.03;3.38;;;30.20;89.30;;;;;;5071032;28;20494;-71
2022/08/14 09:45:27;;;;;;;5.28;3.50;;;30.40;89.60;;;;;;5056942;28;20086;-71
2022/08/14 09:47:55;;;;;;;5.20;3.65;;;30.50;87.40;;;;;;5072983;28;20052;-71
2022/08/14 09:50:31;;;;;;;5.35;3.88;;;30.70;87.00;;;;;;5059898;28;20079;-71
2022/08/14 09:53:03;;;;;;;5.07;3.88;;;30.70;84.90;;;;;;5068138;28;20044;-71
2022/08/14 09:55:32;;;;;;;3.70;3.38;;;30.70;85.00;;;;;;5065393;28;20041;-72
2022/08/14 09:58:07;;;;;;;5.47;3.90;;;30.80;84.90;;;;;;5068089;28;20119;-71
2022/08/14 10:00:47;;;;;;;3.70;3.40;;;30.90;82.90;;;;;;5072985;28;20052;-72
2022/08/14 10:03:32;;;;;;;6.57;3.40;;;31.00;82.30;;;;;;5068500;28;20135;-71
2022/08/14 10:06:16;;;;;;;6.57;3.33;;;31.00;83.00;;;;;;5062296;28;20437;-72
2022/08/14 10:08:56;;;;;;;4.22;3.63;;;31.10;80.20;;;;;;5073043;28;20076;-72
2022/08/14 10:11:24;;;;;;;3.45;3.15;;;31.30;78.70;;;;;;5073202;28;20040;-71
2022/08/14 10:13:53;;;;;;;4.18;3.13;;;31.30;81.20;;;;;;5076329;28;20044;-71
2022/08/14 10:16:27;;;;;;;3.85;3.45;;;31.50;78.90;;;;;;5097330;28;20040;-72
2022/08/14 10:19:08;;;;;;;7.45;3.38;;;31.60;77.80;;;;;;5053763;28;20040;-72
2022/08/14 10:21:38;;;;;;;3.92;3.53;;;31.70;78.30;;;;;;5053154;28;20040;-71
2022/08/14 10:24:07;;;;;;;5.30;3.83;;;31.80;78.10;;;;;;5085386;28;20506;-72
2022/08/14 10:26:33;;;;;;;4.00;3.22;;;31.80;78.70;;;;;;5062461;28;20473;-72
2022/08/14 10:29:11;;;;;;;7.13;3.08;;;31.90;78.10;;;;;;5058716;28;20049;-72
2022/08/14 10:31:37;;;;;;;3.60;3.30;;;32.10;76.30;;;;;;5073254;28;20039;-71
2022/08/14 10:34:07;;;;;;;4.18;3.03;;;32.20;75.30;;;;;;5093504;28;20485;-71
2022/08/14 10:36:47;;;;;;;3.72;3.30;;;32.30;75.50;;;;;;5063408;28;20044;-72
2022/08/14 10:39:24;;;;;;;4.20;2.83;;;32.50;73.70;;;;;;5087074;28;20040;-71
2022/08/14 10:42:04;;;;;;;3.10;2.60;;;32.70;72.60;;;;;;5074444;28;20402;-71
2022/08/14 10:44:38;;;;;;;6.38;3.03;;;32.80;72.40;;;;;;5077719;28;20079;-71
2022/08/14 10:47:12;;;;;;;2.90;2.58;;;33.00;71.30;;;;;;5070876;28;20048;-72
2022/08/14 10:49:48;;;;;;;5.93;3.03;;;33.00;69.40;;;;;;5068233;28;20090;-72
2022/08/14 10:52:33;;;;;;;5.00;2.97;;;33.10;68.60;;;;;;5068921;28;20514;-72
2022/08/14 10:55:14;;;;;;;3.80;3.20;;;33.10;69.90;;;;;;5056457;28;20033;-72
2022/08/14 10:57:55;;;;;;;4.97;3.38;;;33.10;68.40;;;;;;5063416;28;20068;-72
2022/08/14 11:00:25;;;;;;;3.58;2.80;;;33.20;68.50;;;;;;5063215;28;20051;-71
2022/08/14 11:03:06;;;;;;;6.80;3.20;;;33.30;66.90;;;;;;5075306;28;20075;-72
2022/08/14 11:05:42;;;;;;;4.33;3.00;;;33.40;68.00;;;;;;5076053;28;20379;-72
2022/08/14 11:08:10;;;;;;;4.75;3.20;;;33.50;67.70;;;;;;5076848;28;20032;-72
2022/08/14 11:10:46;;;;;;;3.58;2.80;;;33.60;67.70;;;;;;5055862;28;20040;-72
2022/08/14 11:13:20;;;;;;;3.55;2.85;;;33.70;66.10;;;;;;5091758;28;20040;-72
2022/08/14 11:15:47;;;;;;;3.90;2.55;;;33.80;66.10;;;;;;5082206;28;20044;-72
2022/08/14 11:18:14;;;;;;;4.65;3.03;;;34.00;63.30;;;;;;5071759;28;20083;-71
2022/08/14 11:20:53;;;;;;;5.28;2.67;;;33.80;62.50;;;;;;5083509;28;20040;-72
2022/08/14 11:23:21;;;;;;;3.63;2.50;;;33.70;64.00;;;;;;5082629;28;20040;-71
2022/08/14 11:25:48;;;;;;;4.05;2.90;;;33.80;62.30;;;;;;5077660;28;20049;-72
2022/08/14 11:28:15;;;;;;;4.18;3.00;;;34.00;62.50;;;;;;5092230;28;20071;-72
2022/08/14 11:30:43;;;;;;;3.25;2.90;;;34.10;62.70;;;;;;5079331;28;20040;-72
2022/08/14 11:33:12;;;;;;;2.60;2.40;;;34.10;63.00;;;;;;5091704;28;20114;-72
2022/08/14 11:35:38;;;;;;;4.15;2.80;;;34.20;61.80;;;;;;5092401;28;20048;-71
2022/08/14 11:38:06;;;;;;;3.45;2.50;;;34.40;61.80;;;;;;5078499;28;20040;-71
2022/08/14 11:40:38;;;;;;;3.03;2.72;;;34.50;60.10;;;;;;5079799;28;20044;-72
2022/08/14 11:43:08;;;;;;;3.33;2.78;;;34.70;60.10;;;;;;5089671;28;20036;-72
2022/08/14 11:45:36;;;;;;;3.00;2.65;;;34.90;59.20;;;;;;5072108;28;20055;-72
2022/08/14 11:48:23;;;;;;;3.05;2.70;;;34.90;58.10;;;;;;5090637;28;20040;-71
2022/08/14 11:50:53;;;;;;;5.75;2.83;;;34.90;59.00;;;;;;5080344;28;20059;-71
2022/08/14 11:53:27;;;;;;;4.07;2.83;;;34.90;59.50;;;;;;5093268;28;20495;-71
2022/08/14 11:56:02;;;;;;;4.30;2.70;;;34.90;58.40;;;;;;5090341;28;20501;-72
2022/08/14 11:58:30;;;;;;;3.05;2.60;;;34.60;56.90;;;;;;5081341;28;20718;-72
2022/08/14 12:01:01;;;;;;;3.10;2.80;;;34.50;58.10;;;;;;5084662;28;20495;-72
2022/08/14 12:03:46;;;;;;;3.33;3.00;;;34.70;58.10;;;;;;5078507;28;20139;-71
2022/08/14 12:06:18;;;;;;;4.00;2.50;;;34.80;56.60;;;;;;5090746;28;20437;-72
2022/08/14 12:08:49;;;;;;;4.20;2.60;;;34.90;56.00;;;;;;5096381;28;20040;-72
2022/08/14 12:11:15;;;;;;;3.15;2.88;;;35.00;58.30;;;;;;5093010;28;20036;-72
2022/08/14 12:13:42;;;;;;;7.22;2.90;;;35.10;55.90;;;;;;5091784;28;20486;-72
2022/08/14 12:16:10;;;;;;;3.42;2.83;;;35.20;56.80;;;;;;5089004;28;20122;-72
2022/08/14 12:18:41;;;;;;;5.28;3.10;;;35.40;56.00;;;;;;5074940;28;20517;-72
2022/08/14 12:21:20;;;;;;;6.05;2.58;;;35.50;56.00;;;;;;5088368;28;20046;-72
2022/08/14 12:23:58;;;;;;;4.15;2.65;;;35.60;57.10;;;;;;5080287;28;20047;-72
2022/08/14 12:26:24;;;;;;;5.90;2.70;;;35.60;54.80;;;;;;5080877;28;20062;-72
2022/08/14 12:28:52;;;;;;;3.72;2.75;;;35.50;54.80;;;;;;5082442;28;20040;-71
2022/08/14 12:31:19;;;;;;;2.78;2.58;;;35.50;55.20;;;;;;5094086;28;20401;-72
2022/08/14 12:33:59;;;;;;;5.10;2.90;;;35.70;53.60;;;;;;5094241;28;20410;-72
2022/08/14 12:36:31;;;;;;;4.47;2.58;;;35.80;54.00;;;;;;5087103;28;20406;-72
2022/08/14 12:39:16;;;;;;;4.13;2.70;;;35.80;54.40;;;;;;5074973;28;20036;-72
2022/08/14 12:41:54;;;;;;;4.32;2.50;;;35.70;53.30;;;;;;5093627;28;20040;-71
2022/08/14 12:44:36;;;;;;;3.42;2.40;;;35.90;54.00;;;;;;5086907;28;20173;-72
2022/08/14 12:47:15;;;;;;;3.00;2.40;;;36.00;51.70;;;;;;5101989;28;20533;-72
2022/08/14 12:49:53;;;;;;;2.90;2.50;;;35.80;54.00;;;;;;5081724;28;20043;-72
2022/08/14 12:52:35;;;;;;;4.55;2.50;;;35.40;53.10;;;;;;5078198;28;20561;-71
2022/08/14 12:55:03;;;;;;;3.88;2.63;;;35.10;54.10;;;;;;5086002;28;20436;-72
2022/08/14 12:57:35;;;;;;;2.75;2.55;;;34.80;54.40;;;;;;5083125;28;20035;-72
2022/08/14 13:00:16;;;;;;;;;;;34.70;53.60;;;;;;5112542;28;20035;-71
2022/08/14 13:02:43;;;;;;;;;;;35.00;54.40;;;;;;5081098;28;20290;-71
2022/08/14 13:05:11;;;;;;;2.75;2.20;;;35.30;53.10;;;;;;5094272;28;20288;-71
2022/08/14 13:07:39;;;;;;;2.92;2.53;;;35.40;52.00;;;;;;5069181;28;20043;-71
2022/08/14 13:10:13;;;;;;;2.75;2.30;;;35.70;53.10;;;;;;5077209;28;20398;-71